createdAt,value
2023-01-17T00:01:43.496Z,98333.20
2023-01-17T00:04:38.362Z,98333.80
2023-01-17T00:07:34.922Z,98332.00
2023-01-17T00:10:16.659Z,98333.80
2023-01-17T00:12:57.462Z,98336.20
2023-01-17T00:15:34.423Z,98333.00
2023-01-17T00:18:11.779Z,98331.60
2023-01-17T00:21:04.646Z,98322.00
2023-01-17T00:23:57.674Z,98324.40
2023-01-17T00:26:36.561Z,98319.40
2023-01-17T00:29:11.478Z,98324.00
2023-01-17T00:31:46.711Z,98318.80
2023-01-17T00:34:21.483Z,98328.80
2023-01-17T00:36:56.219Z,98329.00
2023-01-17T00:39:30.737Z,98322.20
2023-01-17T00:42:06.177Z,98322.40
2023-01-17T00:44:59.487Z,98325.60
2023-01-17T00:47:53.613Z,98336.00
2023-01-17T00:50:48.423Z,98337.60
2023-01-17T00:53:41.682Z,98336.20
2023-01-17T00:56:34.900Z,98336.00
2023-01-17T00:59:28.621Z,98344.40
2023-01-17T01:02:21.765Z,98346.00
2023-01-17T01:05:15.420Z,98350.00
2023-01-17T01:08:08.288Z,98347.20
2023-01-17T01:11:01.885Z,98353.20
2023-01-17T01:13:55.291Z,98356.00
2023-01-17T01:16:48.478Z,98348.40
2023-01-17T01:19:41.784Z,98345.00
2023-01-17T01:22:35.136Z,98345.60
2023-01-17T01:25:30.570Z,98349.80
2023-01-17T01:28:31.884Z,98354.80
2023-01-17T01:31:26.154Z,98364.20
2023-01-17T01:34:02.610Z,98364.40
2023-01-17T01:36:39.578Z,98369.40
2023-01-17T01:39:16.832Z,98363.40
2023-01-17T01:41:53.773Z,98365.00
2023-01-17T01:44:51.528Z,98365.40
2023-01-17T01:47:38.590Z,98377.00
2023-01-17T01:50:19.299Z,98381.40
2023-01-17T01:53:03.884Z,98387.60
2023-01-17T01:55:45.643Z,98381.20
2023-01-17T01:58:28.004Z,98379.80
2023-01-17T02:01:04.393Z,98386.40
2023-01-17T02:03:42.715Z,98386.00
2023-01-17T02:06:33.817Z,98385.80
2023-01-17T02:09:17.992Z,98388.20
2023-01-17T02:11:56.740Z,98383.60
2023-01-17T02:14:33.474Z,98380.20
2023-01-17T02:17:30.026Z,98367.80
2023-01-17T02:20:51.331Z,98367.40
2023-01-17T02:24:16.676Z,98368.40
2023-01-17T02:27:12.959Z,98368.20
2023-01-17T02:30:34.903Z,98362.80
2023-01-17T02:33:25.729Z,98367.00
2023-01-17T02:36:11.146Z,98364.00
2023-01-17T02:38:56.478Z,98361.00
2023-01-17T02:41:39.480Z,98349.80
2023-01-17T02:44:22.209Z,98345.20
2023-01-17T02:47:00.556Z,98336.20
2023-01-17T02:49:39.418Z,98331.20
2023-01-17T02:52:47.659Z,98326.40
2023-01-17T02:55:39.381Z,98328.00
2023-01-17T02:58:54.307Z,98327.80
2023-01-17T03:01:46.047Z,98312.60
2023-01-17T03:04:32.723Z,98316.40
2023-01-17T03:07:16.845Z,98314.60
2023-01-17T03:09:59.673Z,98312.80
2023-01-17T03:12:38.911Z,98305.80
2023-01-17T03:15:22.665Z,98295.40
2023-01-17T03:18:03.193Z,98290.40
2023-01-17T03:20:40.168Z,98286.00
2023-01-17T03:23:16.663Z,98283.40
2023-01-17T03:25:53.073Z,98277.80
2023-01-17T03:28:29.631Z,98268.60
2023-01-17T03:31:06.004Z,98270.00
2023-01-17T03:33:42.004Z,98277.20
2023-01-17T03:36:18.718Z,98280.40
2023-01-17T03:38:55.904Z,98278.20
2023-01-17T03:41:32.586Z,98263.20
2023-01-17T03:44:09.618Z,98265.80
2023-01-17T03:46:47.268Z,98261.80
2023-01-17T03:49:24.675Z,98276.40
2023-01-17T03:52:01.033Z,98281.60
2023-01-17T03:54:38.137Z,98292.40
2023-01-17T03:57:14.292Z,98290.40
2023-01-17T03:59:50.924Z,98298.40
2023-01-17T04:02:27.720Z,98300.40
2023-01-17T04:05:03.796Z,98301.20
2023-01-17T04:07:40.503Z,98295.40
2023-01-17T04:10:18.039Z,98295.20
2023-01-17T04:12:54.518Z,98308.40
2023-01-17T04:15:31.048Z,98318.00
2023-01-17T04:18:08.828Z,98308.60
2023-01-17T04:20:46.315Z,98295.00
2023-01-17T04:23:22.811Z,98293.80
2023-01-17T04:25:59.499Z,98294.20
2023-01-17T04:28:36.051Z,98303.00
2023-01-17T04:31:16.260Z,98298.80
2023-01-17T04:33:53.121Z,98299.00
2023-01-17T04:36:29.996Z,98303.80
2023-01-17T04:39:06.774Z,98305.60
2023-01-17T04:41:44.311Z,98305.20
2023-01-17T04:44:20.498Z,98305.60
2023-01-17T04:46:57.643Z,98300.40
2023-01-17T04:49:34.834Z,98295.40
2023-01-17T04:52:12.191Z,98295.60
2023-01-17T04:54:49.896Z,98286.40
2023-01-17T04:57:27.500Z,98282.80
2023-01-17T05:00:03.448Z,98282.80
2023-01-17T05:02:39.946Z,98291.40
2023-01-17T05:05:17.422Z,98297.40
2023-01-17T05:08:00.988Z,98296.40
2023-01-17T05:10:37.897Z,98294.80
2023-01-17T05:13:14.661Z,98294.80
2023-01-17T05:15:50.752Z,98294.00
2023-01-17T05:18:27.787Z,98293.40
2023-01-17T05:21:09.010Z,98295.00
2023-01-17T05:23:45.140Z,98295.60
2023-01-17T05:26:22.556Z,98284.80
2023-01-17T05:28:59.418Z,98273.40
2023-01-17T05:31:35.204Z,98265.20
2023-01-17T05:34:11.859Z,98264.20
2023-01-17T05:36:48.428Z,98268.40
2023-01-17T05:39:25.587Z,98274.20
2023-01-17T05:42:02.504Z,98271.20
2023-01-17T05:44:38.920Z,98274.20
2023-01-17T05:47:16.151Z,98280.00
2023-01-17T05:49:53.117Z,98282.20
2023-01-17T05:52:29.358Z,98289.00
2023-01-17T05:55:07.915Z,98289.00
2023-01-17T05:57:43.794Z,98290.60
2023-01-17T06:00:24.595Z,98282.00
2023-01-17T06:03:02.960Z,98271.40
2023-01-17T06:05:39.780Z,98255.00
2023-01-17T06:08:16.144Z,98254.60
2023-01-17T06:10:53.372Z,98258.60
2023-01-17T06:13:29.749Z,98261.20
2023-01-17T06:16:10.344Z,98261.60
2023-01-17T06:18:46.984Z,98248.00
2023-01-17T06:21:24.427Z,98241.00
2023-01-17T06:24:04.518Z,98234.60
2023-01-17T06:26:40.991Z,98244.60
2023-01-17T06:29:18.646Z,98248.80
2023-01-17T06:31:55.421Z,98242.60
2023-01-17T06:34:33.163Z,98234.40
2023-01-17T06:37:09.326Z,98226.20
2023-01-17T06:39:46.077Z,98219.00
2023-01-17T06:42:23.219Z,98212.00
2023-01-17T06:45:00.694Z,98205.00
2023-01-17T06:47:39.469Z,98184.60
2023-01-17T06:50:19.319Z,98175.80
2023-01-17T06:53:04.554Z,98168.80
2023-01-17T06:55:43.921Z,98164.40
2023-01-17T06:58:20.954Z,98163.80
2023-01-17T07:00:57.161Z,98170.00
2023-01-17T07:03:34.058Z,98179.80
2023-01-17T07:06:11.037Z,98189.60
2023-01-17T07:08:47.816Z,98200.60
2023-01-17T07:11:25.254Z,98198.40
2023-01-17T07:14:02.625Z,98199.60
2023-01-17T07:16:40.867Z,98202.40
2023-01-17T07:19:17.280Z,98208.00
2023-01-17T07:21:56.512Z,98221.40
2023-01-17T07:24:33.083Z,98224.80
2023-01-17T07:27:09.334Z,98227.00
2023-01-17T07:29:45.248Z,98226.80
2023-01-17T07:32:22.222Z,98229.40
2023-01-17T07:34:59.468Z,98232.00
2023-01-17T07:37:36.171Z,98231.00
2023-01-17T07:40:20.938Z,98226.60
2023-01-17T07:43:02.274Z,98222.40
2023-01-17T07:45:39.489Z,98208.60
2023-01-17T07:48:17.967Z,98199.80
2023-01-17T07:50:58.590Z,98193.80
2023-01-17T07:53:35.127Z,98185.00
2023-01-17T07:56:13.227Z,98174.20
2023-01-17T07:58:49.821Z,98158.80
2023-01-17T08:01:26.794Z,98164.80
2023-01-17T08:04:03.075Z,98163.80
2023-01-17T08:06:39.454Z,98159.20
2023-01-17T08:09:17.433Z,98154.80
2023-01-17T08:11:54.651Z,98151.40
2023-01-17T08:14:31.252Z,98152.80
2023-01-17T08:17:16.288Z,98151.80
2023-01-17T08:19:54.084Z,98144.80
2023-01-17T08:22:33.071Z,98141.80
2023-01-17T08:25:12.833Z,98138.60
2023-01-17T08:27:49.041Z,98139.60
2023-01-17T08:30:27.039Z,98126.80
2023-01-17T08:33:03.223Z,98121.80
2023-01-17T08:35:39.747Z,98124.40
2023-01-17T08:38:16.351Z,98117.20
2023-01-17T08:40:52.913Z,98138.60
2023-01-17T08:43:29.845Z,98125.60
2023-01-17T08:46:06.769Z,98125.80
2023-01-17T08:48:44.294Z,98115.40
2023-01-17T08:51:21.109Z,98118.20
2023-01-17T08:53:59.097Z,98122.00
2023-01-17T08:56:35.875Z,98118.40
2023-01-17T08:59:14.162Z,98120.80
2023-01-17T09:01:52.655Z,98120.60
2023-01-17T09:04:29.611Z,98117.40
2023-01-17T09:07:10.505Z,98118.60
2023-01-17T09:09:47.648Z,98116.60
2023-01-17T09:12:24.651Z,98112.60
2023-01-17T09:15:02.680Z,98091.40
2023-01-17T09:17:39.367Z,98095.20
2023-01-17T09:20:22.247Z,98112.60
2023-01-17T09:22:59.421Z,98118.80
2023-01-17T09:25:36.217Z,98121.20
2023-01-17T09:28:13.166Z,98122.40
2023-01-17T09:30:50.367Z,98122.40
2023-01-17T09:33:27.083Z,98117.00
2023-01-17T09:36:08.220Z,98116.40
2023-01-17T09:38:43.853Z,98123.40
2023-01-17T09:41:32.220Z,98109.00
2023-01-17T09:44:25.552Z,98119.40
2023-01-17T09:47:09.600Z,98109.60
2023-01-17T09:49:49.668Z,98115.40
2023-01-17T09:52:29.257Z,98117.40
2023-01-17T09:55:08.271Z,98106.20
2023-01-17T09:57:57.068Z,98103.60
2023-01-17T10:00:57.161Z,98094.80
2023-01-17T10:03:54.044Z,98082.20
2023-01-17T10:06:59.969Z,98083.00
2023-01-17T10:10:07.539Z,98067.40
2023-01-17T10:12:55.943Z,98060.20
2023-01-17T10:16:00.968Z,98059.20
2023-01-17T10:19:32.653Z,98047.60
2023-01-17T10:22:36.265Z,98043.60
2023-01-17T10:25:45.154Z,98036.00
2023-01-17T10:28:28.153Z,98032.40
2023-01-17T10:31:10.327Z,98044.00
2023-01-17T10:33:54.619Z,98033.20
2023-01-17T10:36:34.857Z,98024.60
2023-01-17T10:39:22.564Z,98008.20
2023-01-17T10:42:05.360Z,98014.80
2023-01-17T10:44:47.542Z,98028.00
2023-01-17T10:47:29.756Z,98022.40
2023-01-17T10:50:07.798Z,98032.80
2023-01-17T10:52:58.303Z,98041.80
2023-01-17T10:55:46.408Z,98038.60
2023-01-17T10:58:22.971Z,98036.60
2023-01-17T11:01:04.920Z,98038.80
2023-01-17T11:03:44.726Z,98040.00
2023-01-17T11:06:26.101Z,98031.40
2023-01-17T11:09:05.582Z,98027.00
2023-01-17T11:11:51.840Z,98032.00
2023-01-17T11:14:31.153Z,98030.60
2023-01-17T11:17:12.733Z,98025.00
2023-01-17T11:19:51.499Z,98014.40
2023-01-17T11:22:27.283Z,98015.40
2023-01-17T11:25:04.201Z,98011.20
2023-01-17T11:27:44.601Z,98022.80
2023-01-17T11:30:29.878Z,98018.00
2023-01-17T11:33:09.291Z,98023.40
2023-01-17T11:35:50.144Z,98021.20
2023-01-17T11:38:30.004Z,98010.80
2023-01-17T11:41:32.813Z,98004.00
2023-01-17T11:44:29.635Z,98000.60
2023-01-17T11:47:23.540Z,98003.80
2023-01-17T11:50:00.517Z,97989.20
2023-01-17T11:52:42.384Z,97984.20
2023-01-17T11:55:25.216Z,97981.00
2023-01-17T11:58:02.345Z,97973.00
2023-01-17T12:00:51.993Z,97971.20
2023-01-17T12:04:04.114Z,97968.00
2023-01-17T12:06:58.150Z,97958.80
2023-01-17T12:09:46.439Z,97952.80
2023-01-17T12:12:52.262Z,97933.80
2023-01-17T12:15:53.339Z,97922.80
2023-01-17T12:18:50.268Z,97907.00
2023-01-17T12:21:40.073Z,97899.00
2023-01-17T12:24:47.714Z,97887.80
2023-01-17T12:27:37.543Z,97891.60
2023-01-17T12:30:33.681Z,97883.60
2023-01-17T12:33:26.745Z,97881.60
2023-01-17T12:36:17.814Z,97875.40
2023-01-17T12:38:56.926Z,97856.00
2023-01-17T12:41:40.925Z,97830.00
2023-01-17T12:44:21.379Z,97818.20
2023-01-17T12:47:04.889Z,97824.80
2023-01-17T12:49:50.293Z,97825.80
2023-01-17T12:52:51.429Z,97816.00
2023-01-17T12:55:39.989Z,97811.20
2023-01-17T12:58:24.031Z,97804.00
2023-01-17T13:01:08.302Z,97800.40
2023-01-17T13:03:58.902Z,97795.40
2023-01-17T13:06:48.554Z,97793.60
2023-01-17T13:09:30.388Z,97772.80
2023-01-17T13:12:15.276Z,97759.80
2023-01-17T13:14:52.974Z,97761.40
2023-01-17T13:17:46.256Z,97749.60
2023-01-17T13:20:33.087Z,97738.80
2023-01-17T13:23:30.234Z,97730.60
2023-01-17T13:26:11.418Z,97731.80
2023-01-17T13:29:07.407Z,97736.80
2023-01-17T13:31:55.017Z,97743.80
2023-01-17T13:35:11.691Z,97737.00
2023-01-17T13:38:41.410Z,97729.20
2023-01-17T13:41:50.902Z,97728.40
2023-01-17T13:44:32.028Z,97711.80
2023-01-17T13:47:33.165Z,97709.60
2023-01-17T13:50:33.972Z,97717.40
2023-01-17T13:54:00.427Z,97714.40
2023-01-17T13:56:42.890Z,97696.00
2023-01-17T13:59:34.639Z,97704.00
2023-01-17T14:02:44.720Z,97707.60
2023-01-17T14:05:23.401Z,97712.00
2023-01-17T14:08:16.995Z,97706.80
2023-01-17T14:11:09.822Z,97693.40
2023-01-17T14:13:52.143Z,97696.00
2023-01-17T14:16:41.615Z,97682.80
2023-01-17T14:19:32.461Z,97667.60
2023-01-17T14:22:30.251Z,97667.00
2023-01-17T14:25:17.837Z,97654.80
2023-01-17T14:27:58.192Z,97652.00
2023-01-17T14:30:40.303Z,97650.20
2023-01-17T14:33:27.772Z,97650.00
2023-01-17T14:36:06.530Z,97655.80
2023-01-17T14:38:49.257Z,97655.80
2023-01-17T14:41:30.909Z,97663.60
2023-01-17T14:44:09.584Z,97663.80
2023-01-17T14:46:53.793Z,97662.40
2023-01-17T14:49:31.259Z,97669.20
2023-01-17T14:52:17.215Z,97674.80
2023-01-17T14:54:58.035Z,97677.80
2023-01-17T14:57:35.717Z,97679.40
2023-01-17T15:00:35.044Z,97688.80
2023-01-17T15:03:15.616Z,97698.00
2023-01-17T15:05:55.300Z,97708.20
2023-01-17T15:08:37.624Z,97720.20
2023-01-17T15:11:23.778Z,97730.00
2023-01-17T15:14:05.998Z,97727.20
2023-01-17T15:16:44.185Z,97735.80
2023-01-17T15:19:21.053Z,97736.20
2023-01-17T15:21:59.737Z,97733.60
2023-01-17T15:24:44.679Z,97738.00
2023-01-17T15:27:21.893Z,97729.40
2023-01-17T15:30:03.249Z,97723.00
2023-01-17T15:32:40.233Z,97720.00
2023-01-17T15:35:25.709Z,97724.80
2023-01-17T15:38:02.266Z,97728.80
2023-01-17T15:40:47.320Z,97728.20
2023-01-17T15:43:37.104Z,97730.00
2023-01-17T15:46:26.008Z,97734.40
2023-01-17T15:49:18.703Z,97730.80
2023-01-17T15:51:59.564Z,97738.80
2023-01-17T15:54:51.907Z,97744.00
2023-01-17T15:57:38.359Z,97750.40
2023-01-17T16:12:29.643Z,97745.40
2023-01-17T16:15:12.699Z,97758.40
2023-01-17T16:17:54.400Z,97774.00
2023-01-17T16:20:36.939Z,97773.00
2023-01-17T16:23:14.909Z,97772.80
2023-01-17T16:25:54.619Z,97775.20
2023-01-17T16:28:33.475Z,97775.20
2023-01-17T16:31:11.937Z,97789.20
2023-01-17T16:33:50.812Z,97800.80
2023-01-17T16:36:27.491Z,97809.80
2023-01-17T16:39:04.284Z,97811.40
2023-01-17T16:41:40.917Z,97804.00
2023-01-17T16:44:17.698Z,97810.20
2023-01-17T16:46:54.737Z,97817.60
2023-01-17T16:49:33.729Z,97825.00
2023-01-17T16:52:12.203Z,97831.60
2023-01-17T16:54:49.131Z,97830.40
2023-01-17T16:57:26.890Z,97832.20
2023-01-17T17:00:03.287Z,97831.40
2023-01-17T17:02:41.587Z,97832.20
2023-01-17T17:05:20.243Z,97836.60
2023-01-17T17:07:57.289Z,97838.60
2023-01-17T17:10:34.031Z,97834.80
2023-01-17T17:13:10.811Z,97836.20
2023-01-17T17:15:50.545Z,97830.40
2023-01-17T17:18:27.824Z,97826.80
2023-01-17T17:21:08.014Z,97819.00
2023-01-17T17:23:45.041Z,97813.00
2023-01-17T17:26:22.149Z,97817.60
2023-01-17T17:29:00.323Z,97821.60
2023-01-17T17:31:38.275Z,97821.60
2023-01-17T17:34:16.407Z,97831.60
2023-01-17T17:36:55.169Z,97839.80
2023-01-17T17:39:32.722Z,97841.60
2023-01-17T17:42:09.885Z,97836.60
2023-01-17T17:44:46.579Z,97832.40
2023-01-17T17:47:24.099Z,97822.00
2023-01-17T17:50:01.559Z,97814.00
2023-01-17T17:52:38.296Z,97811.60
2023-01-17T17:55:19.048Z,97806.00
2023-01-17T17:57:55.610Z,97816.60
2023-01-17T18:00:33.236Z,97835.00
2023-01-17T18:03:10.042Z,97841.60
2023-01-17T18:05:47.068Z,97840.60
2023-01-17T18:08:24.195Z,97849.20
2023-01-17T18:11:05.737Z,97859.40
2023-01-17T18:13:44.571Z,97864.60
2023-01-17T18:16:22.809Z,97863.40
2023-01-17T18:19:03.264Z,97868.20
2023-01-17T18:21:40.987Z,97863.80
2023-01-17T18:24:19.636Z,97867.20
2023-01-17T18:26:58.542Z,97861.00
2023-01-17T18:29:35.632Z,97854.00
2023-01-17T18:32:14.643Z,97856.40
2023-01-17T18:34:51.821Z,97853.80
2023-01-17T18:37:29.062Z,97856.80
2023-01-17T18:40:07.158Z,97853.40
2023-01-17T18:42:44.220Z,97847.80
2023-01-17T18:45:21.562Z,97848.80
2023-01-17T18:47:59.759Z,97853.00
2023-01-17T18:50:37.991Z,97856.20
2023-01-17T18:53:15.034Z,97865.80
2023-01-17T18:56:00.227Z,97873.60
2023-01-17T18:58:40.826Z,97878.60
2023-01-17T19:01:20.539Z,97882.20
2023-01-17T19:03:59.658Z,97881.20
2023-01-17T19:06:38.579Z,97880.20
2023-01-17T19:09:16.629Z,97877.60
2023-01-17T19:11:53.761Z,97882.60
2023-01-17T19:14:30.049Z,97885.20
2023-01-17T19:17:06.367Z,97883.20
2023-01-17T19:19:43.053Z,97886.60
2023-01-17T19:22:19.732Z,97890.40
2023-01-17T19:24:57.180Z,97893.00
2023-01-17T19:27:34.615Z,97894.00
2023-01-17T19:30:18.254Z,97895.20
2023-01-17T19:32:56.128Z,97892.20
2023-01-17T19:35:32.413Z,97887.00
2023-01-17T19:38:10.337Z,97885.00
2023-01-17T19:40:46.548Z,97885.40
2023-01-17T19:43:24.207Z,97884.20
2023-01-17T19:46:08.210Z,97882.20
2023-01-17T19:48:46.168Z,97880.60
2023-01-17T19:51:23.254Z,97872.20
2023-01-17T19:54:01.523Z,97866.00
2023-01-17T19:56:38.381Z,97868.80
2023-01-17T19:59:15.171Z,97872.60
2023-01-17T20:01:52.695Z,97869.40
2023-01-17T20:04:29.601Z,97870.00
2023-01-17T20:07:05.320Z,97868.20
2023-01-17T20:09:41.668Z,97862.60
2023-01-17T20:12:19.104Z,97860.40
2023-01-17T20:14:56.672Z,97859.20
2023-01-17T20:17:34.641Z,97867.00
2023-01-17T20:20:16.538Z,97863.40
2023-01-17T20:22:52.879Z,97854.80
2023-01-17T20:25:29.720Z,97851.40
2023-01-17T20:28:07.365Z,97846.40
2023-01-17T20:30:44.289Z,97845.40
2023-01-17T20:33:20.703Z,97847.60
2023-01-17T20:36:09.691Z,97842.20
2023-01-17T20:38:49.183Z,97838.60
2023-01-17T20:41:27.910Z,97832.00
2023-01-17T20:44:07.627Z,97829.60
2023-01-17T20:46:45.597Z,97826.60
2023-01-17T20:49:23.386Z,97823.00
2023-01-17T20:52:03.194Z,97817.80
2023-01-17T20:54:40.229Z,97819.60
2023-01-17T20:57:17.470Z,97823.80
2023-01-17T20:59:54.104Z,97828.60
2023-01-17T21:02:31.360Z,97826.20
2023-01-17T21:05:12.919Z,97826.60
2023-01-17T21:07:50.735Z,97830.40
2023-01-17T21:10:29.489Z,97827.00
2023-01-17T21:13:06.586Z,97826.80
2023-01-17T21:15:47.757Z,97821.20
2023-01-17T21:18:25.618Z,97821.80
2023-01-17T21:21:08.062Z,97823.20
2023-01-17T21:23:46.097Z,97823.40
2023-01-17T21:26:25.793Z,97824.00
2023-01-17T21:29:03.935Z,97822.40
2023-01-17T21:31:40.971Z,97829.20
2023-01-17T21:34:17.599Z,97828.60
2023-01-17T21:36:54.341Z,97830.00
2023-01-17T21:39:32.243Z,97831.60
2023-01-17T21:42:09.845Z,97834.80
2023-01-17T21:44:47.120Z,97841.20
2023-01-17T21:47:24.402Z,97836.80
2023-01-17T21:50:00.623Z,97836.60
2023-01-17T21:52:37.447Z,97830.80
2023-01-17T21:55:34.670Z,97831.60
2023-01-17T21:58:34.735Z,97834.40
2023-01-17T22:01:18.442Z,97835.20
2023-01-17T22:03:58.828Z,97833.00
2023-01-17T22:06:36.445Z,97832.80
2023-01-17T22:09:12.701Z,97823.80
2023-01-17T22:11:49.512Z,97812.80
2023-01-17T22:14:26.460Z,97814.00
2023-01-17T22:17:03.947Z,97808.60
2023-01-17T22:19:39.855Z,97813.20
2023-01-17T22:22:16.863Z,97823.20
2023-01-17T22:24:53.458Z,97835.20
2023-01-17T22:27:30.896Z,97837.40
2023-01-17T22:30:13.448Z,97839.00
2023-01-17T22:32:50.757Z,97846.20
2023-01-17T22:35:27.657Z,97847.20
2023-01-17T22:38:04.349Z,97852.20
2023-01-17T22:40:40.769Z,97862.20
2023-01-17T22:43:18.201Z,97864.00
2023-01-17T22:46:01.084Z,97865.40
2023-01-17T22:48:39.981Z,97872.40
2023-01-17T22:51:17.846Z,97871.20
2023-01-17T22:53:58.594Z,97871.40
2023-01-17T22:56:39.907Z,97866.20
2023-01-17T22:59:16.241Z,97867.60
2023-01-17T23:01:52.391Z,97864.00
2023-01-17T23:04:30.492Z,97868.60
2023-01-17T23:07:07.237Z,97875.80
2023-01-17T23:09:43.419Z,97878.40
2023-01-17T23:12:19.532Z,97875.20
2023-01-17T23:15:13.459Z,97863.20
2023-01-17T23:18:15.493Z,97861.00
2023-01-17T23:20:52.403Z,97856.00
2023-01-17T23:23:29.704Z,97853.00
2023-01-17T23:26:09.483Z,97851.00
2023-01-17T23:28:46.145Z,97855.40
2023-01-17T23:31:23.480Z,97848.40
2023-01-17T23:34:00.243Z,97845.60
2023-01-17T23:36:41.822Z,97840.60
2023-01-17T23:39:18.569Z,97830.00
2023-01-17T23:42:13.978Z,97827.00
2023-01-17T23:44:51.417Z,97833.60
2023-01-17T23:47:28.787Z,97833.80
2023-01-17T23:50:05.776Z,97837.60
2023-01-17T23:52:42.663Z,97839.60
2023-01-17T23:55:21.557Z,97851.80
2023-01-17T23:57:58.695Z,97857.20
